Time;durP1;ratioP1;P1;durP2;ratioP2;P2;SDS_P1;SDS_P2;PMS_P1;PMS_P2;Temp;Humidity;BMP_temperature;BMP_pressure;BME280_temperature;BME280_humidity;BME280_pressure;Samples;Min_cycle;Max_cycle;Signal;HPM_P1;HPM_P2
2023/01/07 00:00:49;;;;;;;7.80;5.78;;;;;;;6.34;66.83;102106.50;4913606;29;20039;-93
2023/01/07 00:03:15;;;;;;;11.50;5.78;;;;;;;6.43;66.92;102119.28;4914333;29;20062;-93
2023/01/07 00:05:42;;;;;;;5.72;4.35;;;;;;;6.40;67.19;102114.19;4914022;29;20501;-92
2023/01/07 00:08:07;;;;;;;10.65;5.65;;;;;;;6.24;66.90;102092.03;4913347;29;20046;-91
2023/01/07 00:10:42;;;;;;;11.68;5.60;;;;;;;6.37;67.08;102114.19;4913686;29;20039;-93
2023/01/07 00:13:08;;;;;;;6.60;4.72;;;;;;;6.26;67.20;102100.56;4913283;29;20058;-93
2023/01/07 00:15:33;;;;;;;16.90;7.38;;;;;;;6.20;67.49;102090.34;4913721;29;20024;-91
2023/01/07 00:17:59;;;;;;;14.13;8.40;;;;;;;6.17;66.89;102075.78;4913606;29;20530;-90
2023/01/07 00:20:24;;;;;;;15.52;6.28;;;;;;;6.08;66.85;102065.56;4912912;29;20159;-93
2023/01/07 00:22:52;;;;;;;6.18;4.88;;;;;;;6.21;66.56;102087.75;4912902;29;20094;-91
2023/01/07 00:25:18;;;;;;;10.82;5.65;;;;;;;6.25;66.62;102104.00;4913786;29;20126;-90
2023/01/07 00:27:46;;;;;;;9.32;7.50;;;;;;;5.97;66.95;102067.38;4913518;29;20170;-91
2023/01/07 00:30:12;;;;;;;12.07;5.82;;;;;;;6.05;67.37;102096.44;4913920;29;20040;-92
2023/01/07 00:33:03;;;;;;;8.70;3.83;;;;;;;6.01;67.18;102079.34;4912643;29;20039;-91
2023/01/07 00:35:25;;;;;;;4.45;3.75;;;;;;;6.06;67.26;102079.31;4915274;29;20070;-93
2023/01/07 00:37:52;;;;;;;4.18;2.35;;;;;;;6.31;67.30;102119.38;4913023;29;21099;-93
2023/01/07 00:40:18;;;;;;;7.90;3.90;;;;;;;6.10;67.09;102083.56;4912939;29;20039;-93
2023/01/07 00:43:06;;;;;;;11.40;5.93;;;;;;;6.14;66.73;102082.69;4912173;29;20036;-92
2023/01/07 00:45:37;;;;;;;10.32;4.65;;;;;;;6.13;66.38;102094.66;4909767;29;20050;-90
2023/01/07 00:48:03;;;;;;;10.65;6.85;;;;;;;6.14;67.21;102104.09;4898007;29;20077;-92
2023/01/07 00:50:39;;;;;;;9.50;5.15;;;;;;;6.06;66.87;102080.16;4913103;29;20094;-91
2023/01/07 00:53:08;;;;;;;7.78;4.38;;;;;;;5.97;67.20;102078.50;4898344;29;20039;-90
2023/01/07 00:55:34;;;;;;;5.60;4.22;;;;;;;6.36;67.36;102148.47;4913235;29;20040;-92
2023/01/07 00:58:09;;;;;;;6.20;2.67;;;;;;;5.90;67.39;102079.44;4912316;29;20047;-92
2023/01/07 01:00:34;;;;;;;21.00;4.05;;;;;;;6.04;67.90;102116.13;4914884;29;20071;-92
2023/01/07 01:03:00;;;;;;;9.20;4.75;;;;;;;6.24;67.78;102148.56;4897188;29;20058;-92
2023/01/07 01:05:26;;;;;;;6.88;3.67;;;;;;;5.84;67.42;102087.13;4911854;29;20044;-92
2023/01/07 01:08:07;;;;;;;;;;;;;;;;;;;;;
2023/01/07 01:11:02;;;;;;;4.30;2.47;;;;;;;5.71;68.32;102080.38;4914021;29;20043;-91
2023/01/07 01:13:27;;;;;;;5.75;2.90;;;;;;;6.01;68.15;102125.59;4905428;29;20040;-92
2023/01/07 01:15:58;;;;;;;4.75;3.13;;;;;;;5.93;67.93;102107.66;4912356;29;20101;-92
2023/01/07 01:18:24;;;;;;;4.90;3.78;;;;;;;5.83;67.60;102108.53;4913041;29;20514;-92
2023/01/07 01:20:55;;;;;;;14.95;5.90;;;;;;;5.89;67.69;102120.47;4911924;29;20039;-91
2023/01/07 01:23:20;;;;;;;16.00;4.47;;;;;;;5.65;68.25;102090.66;4896514;29;20039;-92
2023/01/07 01:25:50;;;;;;;6.30;3.97;;;;;;;5.76;67.82;102099.16;4911650;29;20051;-92
2023/01/07 01:28:16;;;;;;;5.93;2.83;;;;;;;6.03;67.71;102158.09;4896863;29;20055;-91
2023/01/07 01:30:43;;;;;;;6.43;3.92;;;;;;;5.97;67.97;102155.56;4912414;29;20114;-91
2023/01/07 01:33:09;;;;;;;7.47;4.88;;;;;;;5.74;68.39;102132.53;4912409;29;20035;-92
2023/01/07 01:35:39;;;;;;;4.68;3.25;;;;;;;5.67;68.44;102119.72;4911994;29;20094;-92
2023/01/07 01:38:07;;;;;;;5.88;2.67;;;;;;;5.58;68.16;102117.22;4911594;29;20051;-91
2023/01/07 01:40:32;;;;;;;8.10;3.88;;;;;;;5.58;68.41;102132.63;4896642;29;20043;-92
2023/01/07 01:42:58;;;;;;;5.55;2.75;;;;;;;5.25;68.25;102083.13;4896498;29;20601;-91
2023/01/07 01:45:26;;;;;;;2.92;2.08;;;;;;;5.25;68.51;102088.25;4911563;29;20512;-91
2023/01/07 01:48:02;;;;;;;3.42;1.65;;;;;;;5.19;68.26;102072.88;4912515;29;20353;-92
2023/01/07 01:50:36;;;;;;;6.78;3.70;;;;;;;5.66;68.81;102164.25;4895947;29;20039;-91
2023/01/07 01:53:14;;;;;;;5.00;2.83;;;;;;;5.19;68.72;102083.13;4896824;29;20073;-92
2023/01/07 01:55:52;;;;;;;2.53;1.83;;;;;;;5.43;68.79;102128.41;4912455;29;20471;-92
2023/01/07 01:58:24;;;;;;;1.63;1.50;;;;;;;5.46;68.69;102129.25;4911350;29;20032;-91
2023/01/07 02:01:00;;;;;;;3.85;2.78;;;;;;;5.25;68.75;102106.22;4897054;29;20046;-92
2023/01/07 02:03:29;;;;;;;5.00;2.85;;;;;;;5.14;69.41;102102.84;4912736;29;20067;-91
2023/01/07 02:05:55;;;;;;;2.63;2.28;;;;;;;5.21;69.33;102114.81;4897239;29;20063;-91
2023/01/07 02:08:22;;;;;;;7.80;4.50;;;;;;;5.24;69.06;102103.66;4910862;29;20111;-91
2023/01/07 02:10:58;;;;;;;3.35;3.05;;;;;;;5.19;69.14;102111.38;4912466;29;20130;-92
2023/01/07 02:13:36;;;;;;;9.25;4.90;;;;;;;5.39;69.57;102150.66;4897841;29;20117;-92
2023/01/07 02:16:06;;;;;;;5.28;3.65;;;;;;;5.12;69.33;102099.44;4911573;29;20050;-91
2023/01/07 02:18:41;;;;;;;5.18;3.17;;;;;;;4.95;69.04;102080.66;4927410;29;20067;-93
2023/01/07 02:21:16;;;;;;;8.82;4.15;;;;;;;5.13;69.37;102111.41;4896439;29;20040;-92
2023/01/07 02:24:17;;;;;;;4.55;3.13;;;;;;;4.94;68.99;102087.50;4927594;29;20028;-92
2023/01/07 02:26:45;;;;;;;4.13;3.00;;;;;;;5.28;68.58;102157.53;4927294;29;20115;-92
2023/01/07 02:29:45;;;;;;;3.70;2.60;;;;;;;5.21;68.72;102154.97;4927567;29;20032;-91
2023/01/07 02:32:39;;;;;;;6.05;3.15;;;;;;;5.06;69.11;102158.44;4927569;29;20050;-91
2023/01/07 02:35:30;;;;;;;5.35;2.63;;;;;;;4.95;69.12;102167.88;4933359;29;20114;-93
2023/01/07 02:38:14;;;;;;;5.85;3.35;;;;;;;4.92;68.68;102157.59;4927313;29;20034;-92
2023/01/07 02:40:48;;;;;;;11.57;3.92;;;;;;;5.05;68.16;102167.00;4912463;29;20039;-92
2023/01/07 02:43:49;;;;;;;5.75;3.67;;;;;;;4.88;68.65;102169.56;4912243;29;20036;-94
2023/01/07 02:46:22;;;;;;;7.10;2.75;;;;;;;4.67;68.59;102142.22;4934239;29;20130;-92
2023/01/07 02:48:47;;;;;;;7.53;3.97;;;;;;;4.23;69.48;102091.00;4911758;29;20024;-91
2023/01/07 02:51:13;;;;;;;4.82;2.60;;;;;;;4.30;69.42;102110.63;4911710;29;20509;-91
2023/01/07 02:53:40;;;;;;;10.55;3.97;;;;;;;4.41;69.15;102108.06;4896100;29;20035;-92
2023/01/07 02:56:38;;;;;;;14.68;4.43;;;;;;;4.33;69.41;102105.50;4895997;29;20035;-91
2023/01/07 02:59:30;;;;;;;6.45;2.97;;;;;;;4.47;69.74;102154.19;4895454;29;20072;-92
2023/01/07 03:01:55;;;;;;;9.90;5.28;;;;;;;4.53;70.59;102177.28;4910064;29;20123;-93
2023/01/07 03:04:43;;;;;;;6.70;4.47;;;;;;;4.47;70.20;102185.81;4939497;29;20104;-91
2023/01/07 03:07:42;;;;;;;7.30;5.43;;;;;;;4.40;70.46;102181.50;4930461;29;20770;-92
2023/01/07 03:10:29;;;;;;;10.55;4.65;;;;;;;4.34;72.21;102180.66;4930614;29;20032;-93
2023/01/07 03:13:00;;;;;;;8.45;3.28;;;;;;;4.11;73.30;102130.22;4915085;29;20501;-91
2023/01/07 03:15:39;;;;;;;9.63;5.82;;;;;;;4.26;73.54;102150.75;4930532;29;20086;-93
2023/01/07 03:18:10;;;;;;;16.60;4.10;;;;;;;4.22;73.51;102138.78;4914704;29;20040;-92
2023/01/07 03:20:37;;;;;;;5.97;3.90;;;;;;;4.27;73.78;102149.06;4914301;29;20032;-91
2023/01/07 03:23:07;;;;;;;8.50;4.60;;;;;;;4.19;74.04;102146.47;4914493;29;20095;-93
2023/01/07 03:25:34;;;;;;;7.72;4.22;;;;;;;3.98;74.36;102118.25;4898789;29;20127;-91
2023/01/07 03:27:59;;;;;;;12.45;6.03;;;;;;;4.32;74.48;102170.38;4914023;29;20043;-91
2023/01/07 03:30:28;;;;;;;14.77;5.47;;;;;;;4.17;74.62;102145.63;4914457;29;20062;-92
2023/01/07 03:32:59;;;;;;;18.35;6.82;;;;;;;4.19;74.73;102158.41;4898504;29;20020;-92
2023/01/07 03:35:25;;;;;;;14.43;7.22;;;;;;;3.95;75.23;102116.56;4898943;29;20059;-93
2023/01/07 03:37:50;;;;;;;16.80;8.70;;;;;;;4.20;74.83;102150.75;4913952;29;20095;-92
2023/01/07 03:40:16;;;;;;;26.20;7.25;;;;;;;4.20;74.27;102140.50;4914590;29;20039;-92
2023/01/07 03:42:44;;;;;;;14.90;7.60;;;;;;;4.20;74.79;102160.97;4914431;29;20118;-91
2023/01/07 03:45:18;;;;;;;5.03;4.28;;;;;;;3.93;74.77;102115.72;4914642;29;20030;-91
2023/01/07 03:47:51;;;;;;;9.88;5.70;;;;;;;4.19;73.58;102143.06;4914389;29;20047;-91
2023/01/07 03:50:17;;;;;;;7.82;4.38;;;;;;;4.02;73.25;102136.19;4914565;29;20035;-93
2023/01/07 03:52:42;;;;;;;35.88;5.65;;;;;;;4.11;73.59;102160.09;4914112;29;20095;-91
2023/01/07 03:55:08;;;;;;;7.95;4.72;;;;;;;4.02;73.70;102140.44;4913670;29;20602;-92
2023/01/07 03:57:34;;;;;;;12.18;6.07;;;;;;;4.01;73.11;102143.88;4913918;29;20090;-91
2023/01/07 04:00:00;;;;;;;7.15;4.72;;;;;;;4.23;72.78;102176.38;4913860;29;20032;-92
2023/01/07 04:02:25;;;;;;;18.48;6.68;;;;;;;4.19;73.08;102192.56;4913944;29;20043;-92
2023/01/07 04:04:51;;;;;;;11.57;7.28;;;;;;;4.03;73.04;102162.66;4911894;29;20031;-92
2023/01/07 04:07:17;;;;;;;12.27;5.28;;;;;;;4.16;72.68;102195.13;4913784;29;20035;-91
2023/01/07 04:09:42;;;;;;;15.73;7.60;;;;;;;3.96;73.15;102181.44;4912637;29;20039;-92
2023/01/07 04:12:08;;;;;;;10.95;6.28;;;;;;;3.95;73.09;102190.81;4913867;29;20051;-90
2023/01/07 04:14:33;;;;;;;13.88;8.32;;;;;;;3.90;72.98;102186.50;4914153;29;20446;-91
2023/01/07 04:16:59;;;;;;;11.50;6.97;;;;;;;3.94;72.88;102201.06;4898562;29;20061;-91
2023/01/07 04:19:24;;;;;;;16.55;6.35;;;;;;;3.83;72.71;102184.78;4913703;29;20067;-91
2023/01/07 04:21:50;;;;;;;22.58;7.25;;;;;;;3.66;73.23;102161.69;4913460;29;20481;-91
2023/01/07 04:24:16;;;;;;;10.35;8.10;;;;;;;3.62;73.15;102158.25;4913387;29;20086;-92
2023/01/07 04:26:41;;;;;;;11.48;7.70;;;;;;;3.51;73.48;102165.03;4913844;29;20405;-91
2023/01/07 04:29:07;;;;;;;13.68;8.63;;;;;;;3.49;73.53;102165.88;4913649;29;20071;-91
2023/01/07 04:31:32;;;;;;;13.05;8.65;;;;;;;3.49;73.74;102183.78;4904728;29;20035;-92
2023/01/07 04:33:58;;;;;;;10.10;7.75;;;;;;;3.49;73.95;102186.34;4913380;29;20154;-92
2023/01/07 04:36:24;;;;;;;13.35;8.25;;;;;;;3.67;73.95;102223.13;4913428;29;20075;-92
2023/01/07 04:38:49;;;;;;;21.90;9.52;;;;;;;3.60;73.95;102208.56;4913706;29;20545;-91
2023/01/07 04:41:15;;;;;;;14.48;7.55;;;;;;;3.41;73.77;102176.06;4914217;29;20074;-91
2023/01/07 04:43:40;;;;;;;19.08;8.52;;;;;;;3.90;73.77;102258.22;4914482;29;20027;-90
2023/01/07 04:46:06;;;;;;;12.80;7.22;;;;;;;3.56;73.68;102206.84;4913703;29;20051;-91
2023/01/07 04:48:31;;;;;;;12.98;10.10;;;;;;;3.55;73.87;102225.63;4913359;29;20098;-92
2023/01/07 04:50:57;;;;;;;11.93;8.10;;;;;;;3.50;73.96;102214.50;4912957;29;20055;-91
2023/01/07 04:53:23;;;;;;;11.88;6.80;;;;;;;3.45;73.66;102199.13;4912387;29;20042;-92
2023/01/07 04:55:48;;;;;;;15.45;9.52;;;;;;;3.60;73.84;102226.47;4896115;29;20047;-91
2023/01/07 04:58:14;;;;;;;12.30;6.75;;;;;;;3.56;73.28;102217.09;4912648;29;20332;-92
2023/01/07 05:00:39;;;;;;;15.40;9.02;;;;;;;3.38;73.65;102201.63;4913439;29;20032;-90
2023/01/07 05:03:05;;;;;;;23.85;10.32;;;;;;;3.53;74.08;102241.78;4913011;29;21561;-91
2023/01/07 05:05:31;;;;;;;17.20;9.75;;;;;;;3.33;74.67;102221.19;4913078;29;20040;-91
2023/01/07 05:07:56;;;;;;;16.90;9.32;;;;;;;3.51;74.57;102249.47;4913216;29;20119;-92
2023/01/07 05:10:22;;;;;;;15.77;8.73;;;;;;;3.55;73.97;102252.91;4912671;29;20087;-91
2023/01/07 05:12:48;;;;;;;27.90;11.63;;;;;;;3.23;73.82;102222.00;4912650;29;20043;-91
2023/01/07 05:15:13;;;;;;;22.65;11.25;;;;;;;3.48;74.68;102272.47;4913302;29;20047;-92
2023/01/07 05:17:39;;;;;;;20.75;10.73;;;;;;;3.28;73.83;102225.44;4904680;29;20134;-91
2023/01/07 05:20:06;;;;;;;21.42;10.02;;;;;;;3.39;73.76;102249.38;4897223;29;20122;-93
2023/01/07 05:22:32;;;;;;;19.27;12.25;;;;;;;3.09;73.87;102209.97;4913124;29;20426;-92
2023/01/07 05:24:57;;;;;;;20.13;11.45;;;;;;;3.18;73.88;102232.19;4913154;29;20028;-91
2023/01/07 05:27:23;;;;;;;13.45;9.77;;;;;;;2.91;73.77;102194.50;4912842;29;20473;-91
2023/01/07 05:29:48;;;;;;;22.27;13.15;;;;;;;3.22;73.07;102230.50;4912606;29;20042;-92
2023/01/07 05:32:14;;;;;;;14.82;8.07;;;;;;;3.22;73.37;102236.47;4912783;29;20046;-92
2023/01/07 05:34:40;;;;;;;25.15;11.63;;;;;;;3.08;73.22;102207.41;4905037;29;20056;-92
2023/01/07 05:37:05;;;;;;;21.92;10.88;;;;;;;3.30;72.98;102244.22;4912217;29;20067;-90
2023/01/07 05:39:31;;;;;;;21.77;10.00;;;;;;;3.47;73.44;102282.72;4912600;29;20024;-91
2023/01/07 05:41:56;;;;;;;23.45;12.48;;;;;;;3.05;73.15;102226.16;4912005;29;20031;-92
2023/01/07 05:44:22;;;;;;;24.50;12.02;;;;;;;3.04;72.96;102224.41;4912524;29;20042;-91
2023/01/07 05:46:47;;;;;;;19.45;11.48;;;;;;;3.19;72.91;102250.97;4912478;29;20598;-90
2023/01/07 05:49:15;;;;;;;16.27;10.55;;;;;;;3.23;72.58;102255.25;4912564;29;20115;-91
2023/01/07 05:51:41;;;;;;;16.08;13.55;;;;;;;3.02;72.99;102232.91;4897371;29;20078;-92
2023/01/07 05:54:07;;;;;;;16.85;11.00;;;;;;;3.01;73.27;102242.28;4912217;29;20126;-91
2023/01/07 05:56:33;;;;;;;25.50;13.35;;;;;;;3.08;73.25;102258.53;4911928;29;20036;-92
2023/01/07 05:58:58;;;;;;;18.30;13.43;;;;;;;2.93;73.80;102249.03;4912201;29;20036;-91
2023/01/07 06:01:24;;;;;;;16.08;10.45;;;;;;;2.70;73.71;102202.00;4912122;29;20032;-91
2023/01/07 06:03:50;;;;;;;24.00;12.15;;;;;;;2.76;73.99;102218.25;4928083;29;20046;-93
2023/01/07 06:06:15;;;;;;;23.92;14.13;;;;;;;2.61;74.11;102210.44;4912272;29;20038;-91
2023/01/07 06:08:41;;;;;;;18.58;11.43;;;;;;;2.71;74.24;102231.81;4912199;29;20062;-92
2023/01/07 06:11:07;;;;;;;23.98;13.00;;;;;;;2.58;74.18;102203.59;4912016;29;20075;-92
2023/01/07 06:13:32;;;;;;;16.42;11.75;;;;;;;2.63;74.68;102215.53;4912002;29;20054;-93
2023/01/07 06:16:02;;;;;;;17.98;11.98;;;;;;;2.67;74.64;102220.72;4912349;29;20036;-92
2023/01/07 06:18:28;;;;;;;19.52;11.05;;;;;;;3.01;74.24;102267.00;4912221;29;20051;-91
2023/01/07 06:20:53;;;;;;;26.98;13.38;;;;;;;2.82;74.02;102240.41;4912704;29;20027;-92
2023/01/07 06:23:19;;;;;;;19.67;12.23;;;;;;;2.72;73.88;102220.75;4911949;29;20589;-91
2023/01/07 06:25:44;;;;;;;20.85;10.93;;;;;;;3.03;73.64;102270.44;4904123;29;20043;-92
2023/01/07 06:28:10;;;;;;;22.63;14.82;;;;;;;3.01;73.74;102267.84;4895949;29;20070;-93
2023/01/07 06:30:35;;;;;;;18.98;10.18;;;;;;;2.96;73.95;102269.53;4912413;29;20111;-93
2023/01/07 06:33:01;;;;;;;19.75;13.80;;;;;;;2.66;74.72;102234.34;4915410;29;20039;-93
2023/01/07 06:35:27;;;;;;;20.45;11.10;;;;;;;3.00;74.86;102296.84;4915807;29;20106;-91
2023/01/07 06:37:52;;;;;;;22.50;12.60;;;;;;;2.75;74.66;102254.88;4915104;29;21048;-91
2023/01/07 06:40:18;;;;;;;25.98;16.77;;;;;;;2.72;74.37;102241.19;4907506;29;20050;-92
2023/01/07 06:42:43;;;;;;;26.15;15.65;;;;;;;2.88;74.35;102255.81;4917371;29;20043;-94
2023/01/07 06:45:09;;;;;;;49.47;19.77;;;;;;;2.72;74.10;102236.94;4915340;29;20095;-95
2023/01/07 06:47:35;;;;;;;27.30;14.75;;;;;;;3.08;73.86;102286.69;4917012;29;20020;-92
2023/01/07 06:50:01;;;;;;;22.67;13.77;;;;;;;2.83;73.94;102247.25;4915588;29;20143;-91
2023/01/07 06:52:26;;;;;;;34.10;19.05;;;;;;;2.91;73.07;102278.00;4915508;29;20028;-92
2023/01/07 06:54:52;;;;;;;24.58;16.60;;;;;;;2.77;72.82;102239.53;4915672;29;20035;-93
2023/01/07 06:57:17;;;;;;;28.58;16.35;;;;;;;2.70;72.78;102253.09;4899244;29;20118;-91
2023/01/07 06:59:43;;;;;;;28.60;17.80;;;;;;;2.66;73.13;102243.69;4914824;29;20028;-92
2023/01/07 07:02:21;;;;;;;34.95;18.60;;;;;;;2.76;73.66;102255.72;4914511;29;20024;-93
2023/01/07 07:04:47;;;;;;;45.38;21.92;;;;;;;2.82;72.79;102250.66;4900861;29;20043;-92
2023/01/07 07:07:12;;;;;;;29.02;18.73;;;;;;;2.96;72.21;102259.31;4900206;29;20067;-92
2023/01/07 07:09:38;;;;;;;47.33;20.38;;;;;;;2.88;72.71;102245.59;4913897;29;20119;-92
2023/01/07 07:12:04;;;;;;;37.08;20.02;;;;;;;3.22;72.94;102300.41;4915319;29;20036;-93
2023/01/07 07:14:30;;;;;;;21.85;9.68;;;;;;;3.27;72.63;102311.56;4915481;29;21156;-92
2023/01/07 07:16:55;;;;;;;25.00;12.80;;;;;;;3.33;72.24;102303.06;4914285;29;20031;-92
2023/01/07 07:19:21;;;;;;;20.58;12.00;;;;;;;3.24;72.31;102285.06;4915324;29;20058;-91
2023/01/07 07:21:47;;;;;;;19.55;10.20;;;;;;;3.35;71.77;102288.59;4930711;29;20031;-91
2023/01/07 07:24:12;;;;;;;15.95;9.30;;;;;;;3.19;71.43;102261.19;4914427;29;20474;-92
2023/01/07 07:26:38;;;;;;;13.50;9.13;;;;;;;3.11;71.75;102244.06;4915425;29;20527;-92
2023/01/07 07:29:03;;;;;;;21.55;12.70;;;;;;;3.26;72.07;102274.03;4914998;29;20031;-91
2023/01/07 07:31:29;;;;;;;32.30;9.77;;;;;;;3.33;71.92;102286.00;4914761;29;20031;-91
2023/01/07 07:33:54;;;;;;;26.58;13.07;;;;;;;3.59;71.79;102311.78;4898868;29;20055;-93
2023/01/07 07:36:20;;;;;;;13.43;9.65;;;;;;;3.70;70.95;102302.47;4914607;29;20028;-92
2023/01/07 07:38:45;;;;;;;16.45;8.85;;;;;;;3.60;71.33;102287.06;4898331;29;20074;-94
2023/01/07 07:41:11;;;;;;;37.67;19.55;;;;;;;3.81;71.00;102301.69;4914707;29;20067;-92
2023/01/07 07:43:37;;;;;;;47.40;21.17;;;;;;;3.71;70.57;102293.94;4913149;29;20412;-91
2023/01/07 07:46:02;;;;;;;34.10;16.77;;;;;;;3.79;70.85;102288.03;4914218;29;20040;-91
2023/01/07 07:48:28;;;;;;;20.27;9.63;;;;;;;3.67;70.16;102261.50;4915637;29;20494;-91
2023/01/07 07:50:54;;;;;;;21.98;11.05;;;;;;;3.87;70.49;102289.78;4914558;29;20043;-92
2023/01/07 07:53:19;;;;;;;28.13;14.40;;;;;;;3.79;70.27;102268.41;4915572;29;20119;-93
2023/01/07 07:55:45;;;;;;;10.75;6.88;;;;;;;3.97;70.50;102295.81;4913944;29;20041;-92
2023/01/07 07:58:11;;;;;;;16.92;8.55;;;;;;;4.27;70.47;102331.81;4914135;29;20035;-92
2023/01/07 08:00:36;;;;;;;14.77;8.63;;;;;;;4.07;70.94;102284.75;4914256;29;20038;-93
2023/01/07 08:03:02;;;;;;;18.40;8.93;;;;;;;4.08;71.05;102267.69;4914466;29;20501;-93
2023/01/07 08:05:30;;;;;;;12.73;9.40;;;;;;;4.26;70.24;102289.09;4898415;29;20130;-91
2023/01/07 08:07:57;;;;;;;20.02;10.52;;;;;;;4.34;70.16;102275.47;4914213;29;20043;-93
2023/01/07 08:10:23;;;;;;;14.90;8.18;;;;;;;4.42;69.69;102278.88;4913983;29;20032;-91
2023/01/07 08:12:52;;;;;;;60.70;48.80;;;;;;;4.47;69.78;102282.31;4914270;29;20038;-91
2023/01/07 08:15:17;;;;;;;11.38;6.32;;;;;;;4.46;69.22;102249.88;4915036;29;20032;-92
2023/01/07 08:17:43;;;;;;;14.43;8.90;;;;;;;4.45;69.15;102232.78;4913522;29;20531;-95
2023/01/07 08:20:11;;;;;;;16.55;8.02;;;;;;;4.48;69.57;102237.91;4913417;29;20039;-92
2023/01/07 08:22:37;;;;;;;14.55;10.60;;;;;;;5.00;68.93;102314.91;4897646;29;20031;-91
2023/01/07 08:25:03;;;;;;;19.10;12.18;;;;;;;4.84;68.39;102267.88;4913519;29;20095;-93
2023/01/07 08:27:28;;;;;;;12.35;8.88;;;;;;;4.86;68.02;102249.06;4929571;29;20027;-91
2023/01/07 08:29:54;;;;;;;12.13;8.45;;;;;;;4.81;67.71;102227.69;4913361;29;20042;-93
2023/01/07 08:32:20;;;;;;;14.70;8.95;;;;;;;5.26;67.38;102286.69;4898034;29;20066;-92
2023/01/07 08:34:45;;;;;;;15.57;8.63;;;;;;;5.16;66.99;102255.91;4913000;29;20498;-92
2023/01/07 08:37:11;;;;;;;13.73;8.55;;;;;;;5.17;67.22;102251.63;4913435;29;20140;-92
2023/01/07 08:39:37;;;;;;;20.88;9.75;;;;;;;5.05;67.23;102224.28;4906395;29;20031;-91
2023/01/07 08:42:03;;;;;;;12.35;8.18;;;;;;;5.06;67.56;102217.44;4913275;29;20060;-93
2023/01/07 08:44:28;;;;;;;16.38;9.18;;;;;;;5.36;67.22;102265.31;4906747;29;20421;-91
2023/01/07 08:46:54;;;;;;;15.98;9.65;;;;;;;5.29;66.72;102245.63;4913221;29;20055;-92
2023/01/07 08:49:19;;;;;;;14.77;8.13;;;;;;;5.35;66.89;102245.63;4913182;29;20039;-92
2023/01/07 08:51:45;;;;;;;19.48;9.70;;;;;;;5.64;66.40;102263.53;4914190;29;20040;-91
2023/01/07 08:54:10;;;;;;;12.43;9.88;;;;;;;5.60;66.02;102246.41;4913076;29;20597;-91
2023/01/07 08:56:36;;;;;;;14.43;8.25;;;;;;;5.47;66.01;102217.38;4912873;29;20085;-94
2023/01/07 08:59:02;;;;;;;13.60;9.75;;;;;;;5.76;65.57;102242.97;4913385;29;20114;-91
2023/01/07 09:01:27;;;;;;;16.38;9.75;;;;;;;5.84;66.24;102238.66;4913288;29;20612;-94
2023/01/07 09:03:53;;;;;;;16.55;10.98;;;;;;;5.89;65.85;102248.91;4913044;29;20036;-92
2023/01/07 09:06:18;;;;;;;15.15;10.02;;;;;;;5.85;64.97;102237.78;4913401;29;20036;-93
2023/01/07 09:08:44;;;;;;;20.83;11.35;;;;;;;5.67;64.94;102212.16;4912954;29;20032;-91
2023/01/07 09:11:10;;;;;;;26.88;13.27;;;;;;;6.15;65.12;102282.25;4906616;29;20478;-93
2023/01/07 09:13:35;;;;;;;22.33;11.15;;;;;;;5.97;64.43;102232.63;4912751;29;20684;-90
2023/01/07 09:16:01;;;;;;;34.47;13.63;;;;;;;6.12;64.84;102247.13;4912859;29;20032;-91
2023/01/07 09:18:26;;;;;;;34.17;15.10;;;;;;;6.01;64.70;102207.81;4912641;29;20042;-91
2023/01/07 09:20:54;;;;;;;19.30;10.93;;;;;;;6.09;64.24;102192.31;4913298;29;20042;-93
2023/01/07 09:23:20;;;;;;;19.95;11.13;;;;;;;6.37;63.87;102227.28;4913272;29;20074;-93
2023/01/07 09:25:45;;;;;;;17.35;12.93;;;;;;;6.25;64.30;102209.38;4898120;29;20081;-93
2023/01/07 09:28:11;;;;;;;22.65;10.73;;;;;;;6.32;64.04;102209.34;4913088;29;20439;-93
2023/01/07 09:30:36;;;;;;;15.10;9.52;;;;;;;6.55;63.95;102216.88;4913080;29;20101;-92
2023/01/07 09:33:03;;;;;;;21.88;10.52;;;;;;;6.53;63.77;102203.19;4912680;29;20055;-93
2023/01/07 09:35:47;;;;;;;10.68;7.65;;;;;;;6.51;63.58;102191.22;4912717;29;20063;-93
2023/01/07 09:38:12;;;;;;;15.38;7.85;;;;;;;6.77;63.17;102232.16;4923147;29;20023;-94
2023/01/07 09:40:39;;;;;;;18.02;8.20;;;;;;;6.75;63.14;102206.44;4912981;29;20161;-94
2023/01/07 09:43:15;;;;;;;14.75;8.55;;;;;;;6.88;63.32;102209.78;4896058;29;20060;-92
2023/01/07 09:45:55;;;;;;;17.70;7.18;;;;;;;6.98;62.66;102215.69;4912131;29;20509;-92
2023/01/07 09:48:44;;;;;;;15.23;7.70;;;;;;;6.67;63.39;102167.06;4904571;29;20067;-94
2023/01/07 09:51:21;;;;;;;15.40;8.00;;;;;;;6.85;64.03;102184.94;4913247;29;20078;-92
2023/01/07 09:53:49;;;;;;;12.15;6.63;;;;;;;6.72;63.42;102143.91;4912730;29;20044;-92
2023/01/07 09:56:22;;;;;;;13.85;6.53;;;;;;;6.97;62.80;102155.66;4896030;29;20072;-93
2023/01/07 09:58:47;;;;;;;12.68;7.05;;;;;;;7.08;62.65;102160.69;4897023;29;20050;-93
2023/01/07 10:01:51;;;;;;;9.85;6.05;;;;;;;7.10;62.63;102139.25;4911942;29;20027;-92
2023/01/07 10:04:42;;;;;;;9.75;4.68;;;;;;;7.47;62.92;102180.91;4910536;29;20036;-92
2023/01/07 10:07:27;;;;;;;12.90;7.55;;;;;;;7.27;62.86;102110.72;4914049;29;20127;-91
2023/01/07 10:09:53;;;;;;;18.83;4.15;;;;;;;7.71;62.49;102168.59;4916124;29;20040;-94
2023/01/07 10:12:47;;;;;;;10.23;4.63;;;;;;;7.79;61.97;102164.19;4939445;29;20512;-91
2023/01/07 10:15:45;;;;;;;9.18;5.28;;;;;;;7.86;61.72;102164.94;4939203;29;20044;-91
2023/01/07 10:18:23;;;;;;;5.38;4.50;;;;;;;7.95;61.83;102157.09;4905006;29;20047;-91
2023/01/07 10:21:05;;;;;;;6.45;4.10;;;;;;;7.75;61.40;102101.53;4931470;29;20027;-93
2023/01/07 10:23:34;;;;;;;7.10;4.10;;;;;;;8.00;60.66;102132.97;4909791;29;20103;-91
2023/01/07 10:26:00;;;;;;;8.23;4.38;;;;;;;7.84;60.67;102099.72;4900461;29;20047;-90
2023/01/07 10:28:34;;;;;;;8.73;5.18;;;;;;;7.71;61.41;102079.28;4915945;29;20126;-93
2023/01/07 10:31:02;;;;;;;8.05;5.15;;;;;;;7.96;61.05;102097.84;4900697;29;20807;-90
2023/01/07 10:33:30;;;;;;;8.82;5.50;;;;;;;8.28;60.85;102140.31;4899682;29;20042;-91
2023/01/07 10:36:08;;;;;;;6.97;4.88;;;;;;;8.05;61.05;102096.81;4900276;29;20032;-92
2023/01/07 10:38:34;;;;;;;7.57;4.05;;;;;;;8.03;60.82;102088.25;4916539;29;20051;-92
2023/01/07 10:41:04;;;;;;;6.13;5.03;;;;;;;7.86;60.93;102065.31;4914987;29;20036;-91
2023/01/07 10:43:39;;;;;;;6.82;4.85;;;;;;;8.35;61.04;102121.31;4915501;29;20505;-93
2023/01/07 10:46:34;;;;;;;6.72;4.97;;;;;;;8.13;60.40;102069.19;4930677;29;20032;-91
2023/01/07 10:49:20;;;;;;;7.85;4.70;;;;;;;8.29;60.62;102074.97;4897883;29;20122;-92
2023/01/07 10:51:58;;;;;;;11.15;5.78;;;;;;;8.62;60.73;102109.69;4915379;29;20036;-93
2023/01/07 10:54:31;;;;;;;13.02;5.90;;;;;;;8.72;60.41;102100.91;4930433;29;20516;-94
2023/01/07 10:57:00;;;;;;;10.05;4.88;;;;;;;8.64;60.24;102040.84;4914311;29;20118;-92
2023/01/07 10:59:25;;;;;;;10.60;5.18;;;;;;;8.95;59.57;102082.44;4898899;29;20327;-93
2023/01/07 11:01:55;;;;;;;7.60;4.88;;;;;;;8.89;59.64;102062.75;4915103;29;20036;-91
2023/01/07 11:04:20;;;;;;;8.68;5.88;;;;;;;8.97;59.51;102070.34;4915947;29;20040;-92
2023/01/07 11:07:02;;;;;;;9.27;4.45;;;;;;;9.13;59.44;102063.13;4914981;29;20118;-92
2023/01/07 11:09:32;;;;;;;9.05;5.95;;;;;;;9.31;58.64;102075.69;4900318;29;20090;-94
2023/01/07 11:12:00;;;;;;;9.50;5.03;;;;;;;9.12;59.11;102048.53;4914486;29;20032;-93
2023/01/07 11:14:31;;;;;;;15.65;10.25;;;;;;;9.09;59.20;102025.38;4914606;29;20063;-93
2023/01/07 11:17:06;;;;;;;11.82;6.15;;;;;;;9.35;58.77;102042.91;4914169;29;20123;-91
2023/01/07 11:20:01;;;;;;;5.97;4.70;;;;;;;9.18;58.34;101994.19;4899451;29;20438;-92
2023/01/07 11:22:26;;;;;;;10.00;5.22;;;;;;;9.64;58.21;102047.44;4935975;29;20046;-90
2023/01/07 11:24:55;;;;;;;13.73;6.47;;;;;;;9.33;57.12;102000.75;4930340;29;20032;-92
2023/01/07 11:27:23;;;;;;;16.10;7.30;;;;;;;9.49;57.48;102025.38;4913978;29;20078;-91
2023/01/07 11:30:02;;;;;;;9.43;5.55;;;;;;;9.23;57.17;101982.03;4898809;29;20042;-92
2023/01/07 11:32:33;;;;;;;6.57;4.80;;;;;;;9.51;57.03;102009.84;4929487;29;20066;-92
2023/01/07 11:35:14;;;;;;;12.45;6.07;;;;;;;9.56;57.70;102029.53;4913912;29;20055;-92
2023/01/07 11:37:42;;;;;;;9.65;5.10;;;;;;;9.39;57.63;102001.47;4929815;29;20546;-91